sensor_id;sensor_type;location;lat;lon;timestamp;P1;durP1;ratioP1;P2;durP2;ratioP2
68475;SDS011;55464;48.266;14.188;2022-07-23T00:00:52;9.75;;;8.07;;
68475;SDS011;55464;48.266;14.188;2022-07-23T00:03:17;9.95;;;7.78;;
68475;SDS011;55464;48.266;14.188;2022-07-23T00:05:43;9.57;;;7.47;;
68475;SDS011;55464;48.266;14.188;2022-07-23T00:08:09;10.55;;;8.05;;
68475;SDS011;55464;48.266;14.188;2022-07-23T00:10:35;8.88;;;6.85;;
68475;SDS011;55464;48.266;14.188;2022-07-23T00:13:01;9.77;;;7.05;;
68475;SDS011;55464;48.266;14.188;2022-07-23T00:15:27;9.02;;;7.30;;
68475;SDS011;55464;48.266;14.188;2022-07-23T00:17:52;9.23;;;7.53;;
68475;SDS011;55464;48.266;14.188;2022-07-23T00:20:18;8.00;;;7.20;;
68475;SDS011;55464;48.266;14.188;2022-07-23T00:22:50;7.85;;;6.75;;
68475;SDS011;55464;48.266;14.188;2022-07-23T00:25:18;6.82;;;6.13;;
68475;SDS011;55464;48.266;14.188;2022-07-23T00:27:45;7.32;;;6.50;;
68475;SDS011;55464;48.266;14.188;2022-07-23T00:30:11;10.93;;;7.45;;
68475;SDS011;55464;48.266;14.188;2022-07-23T00:32:53;9.18;;;7.57;;
68475;SDS011;55464;48.266;14.188;2022-07-23T00:35:22;9.38;;;7.13;;
68475;SDS011;55464;48.266;14.188;2022-07-23T00:37:52;7.80;;;6.97;;
68475;SDS011;55464;48.266;14.188;2022-07-23T00:40:18;9.20;;;7.38;;
68475;SDS011;55464;48.266;14.188;2022-07-23T00:42:44;7.75;;;6.95;;
68475;SDS011;55464;48.266;14.188;2022-07-23T00:45:10;7.90;;;6.88;;
68475;SDS011;55464;48.266;14.188;2022-07-23T00:47:36;8.07;;;7.10;;
68475;SDS011;55464;48.266;14.188;2022-07-23T00:50:03;8.05;;;6.90;;
68475;SDS011;55464;48.266;14.188;2022-07-23T00:52:30;8.05;;;6.72;;
68475;SDS011;55464;48.266;14.188;2022-07-23T00:54:57;8.20;;;6.68;;
68475;SDS011;55464;48.266;14.188;2022-07-23T00:57:23;9.57;;;7.10;;
68475;SDS011;55464;48.266;14.188;2022-07-23T00:59:48;9.43;;;7.13;;
68475;SDS011;55464;48.266;14.188;2022-07-23T01:02:14;9.40;;;6.93;;
68475;SDS011;55464;48.266;14.188;2022-07-23T01:04:40;7.47;;;6.20;;
68475;SDS011;55464;48.266;14.188;2022-07-23T01:07:06;9.05;;;6.68;;
68475;SDS011;55464;48.266;14.188;2022-07-23T01:09:32;7.50;;;6.55;;
68475;SDS011;55464;48.266;14.188;2022-07-23T01:11:58;9.43;;;7.07;;
68475;SDS011;55464;48.266;14.188;2022-07-23T01:14:24;8.90;;;7.70;;
68475;SDS011;55464;48.266;14.188;2022-07-23T01:16:50;10.43;;;7.30;;
68475;SDS011;55464;48.266;14.188;2022-07-23T01:19:16;9.23;;;8.27;;
68475;SDS011;55464;48.266;14.188;2022-07-23T01:21:43;9.15;;;8.15;;
68475;SDS011;55464;48.266;14.188;2022-07-23T01:24:11;9.27;;;8.45;;
68475;SDS011;55464;48.266;14.188;2022-07-23T01:26:37;11.15;;;8.48;;
68475;SDS011;55464;48.266;14.188;2022-07-23T01:29:05;9.48;;;8.48;;
68475;SDS011;55464;48.266;14.188;2022-07-23T01:31:31;10.50;;;9.20;;
68475;SDS011;55464;48.266;14.188;2022-07-23T01:33:57;9.98;;;8.90;;
68475;SDS011;55464;48.266;14.188;2022-07-23T01:36:23;10.77;;;8.57;;
68475;SDS011;55464;48.266;14.188;2022-07-23T01:38:48;12.07;;;8.07;;
68475;SDS011;55464;48.266;14.188;2022-07-23T01:41:14;12.80;;;8.40;;
68475;SDS011;55464;48.266;14.188;2022-07-23T01:43:40;12.48;;;8.52;;
68475;SDS011;55464;48.266;14.188;2022-07-23T01:46:06;16.25;;;9.20;;
68475;SDS011;55464;48.266;14.188;2022-07-23T01:48:32;13.07;;;8.90;;
68475;SDS011;55464;48.266;14.188;2022-07-23T01:50:57;11.80;;;8.40;;
68475;SDS011;55464;48.266;14.188;2022-07-23T01:53:23;10.02;;;9.02;;
68475;SDS011;55464;48.266;14.188;2022-07-23T01:55:49;10.65;;;8.98;;
68475;SDS011;55464;48.266;14.188;2022-07-23T01:58:14;11.82;;;9.57;;
68475;SDS011;55464;48.266;14.188;2022-07-23T02:00:40;10.30;;;8.65;;
68475;SDS011;55464;48.266;14.188;2022-07-23T02:03:06;9.85;;;8.85;;
68475;SDS011;55464;48.266;14.188;2022-07-23T02:05:31;10.25;;;8.95;;
68475;SDS011;55464;48.266;14.188;2022-07-23T02:07:58;10.43;;;9.32;;
68475;SDS011;55464;48.266;14.188;2022-07-23T02:10:24;11.13;;;8.82;;
68475;SDS011;55464;48.266;14.188;2022-07-23T02:12:50;11.90;;;9.18;;
68475;SDS011;55464;48.266;14.188;2022-07-23T02:15:16;9.52;;;8.35;;
68475;SDS011;55464;48.266;14.188;2022-07-23T02:17:42;10.05;;;8.40;;
68475;SDS011;55464;48.266;14.188;2022-07-23T02:20:08;10.70;;;8.93;;
68475;SDS011;55464;48.266;14.188;2022-07-23T02:22:34;12.52;;;9.35;;
68475;SDS011;55464;48.266;14.188;2022-07-23T02:25:01;9.60;;;8.60;;
68475;SDS011;55464;48.266;14.188;2022-07-23T02:27:27;9.32;;;8.40;;
68475;SDS011;55464;48.266;14.188;2022-07-23T02:29:53;9.32;;;8.32;;
68475;SDS011;55464;48.266;14.188;2022-07-23T02:32:18;11.15;;;9.63;;
68475;SDS011;55464;48.266;14.188;2022-07-23T02:34:46;12.13;;;9.05;;
68475;SDS011;55464;48.266;14.188;2022-07-23T02:37:12;10.10;;;8.80;;
68475;SDS011;55464;48.266;14.188;2022-07-23T02:39:38;11.60;;;8.52;;
68475;SDS011;55464;48.266;14.188;2022-07-23T02:42:04;11.80;;;8.95;;
68475;SDS011;55464;48.266;14.188;2022-07-23T02:44:29;9.68;;;8.68;;
68475;SDS011;55464;48.266;14.188;2022-07-23T02:46:55;10.43;;;9.13;;
68475;SDS011;55464;48.266;14.188;2022-07-23T02:49:21;10.25;;;8.35;;
68475;SDS011;55464;48.266;14.188;2022-07-23T02:51:46;9.82;;;8.82;;
68475;SDS011;55464;48.266;14.188;2022-07-23T02:54:12;10.85;;;8.85;;
68475;SDS011;55464;48.266;14.188;2022-07-23T02:56:38;11.48;;;8.25;;
68475;SDS011;55464;48.266;14.188;2022-07-23T02:59:03;9.68;;;7.53;;
68475;SDS011;55464;48.266;14.188;2022-07-23T03:01:29;10.75;;;8.27;;
68475;SDS011;55464;48.266;14.188;2022-07-23T03:03:55;9.10;;;7.97;;
68475;SDS011;55464;48.266;14.188;2022-07-23T03:06:20;8.75;;;7.75;;
68475;SDS011;55464;48.266;14.188;2022-07-23T03:08:46;11.55;;;8.73;;
68475;SDS011;55464;48.266;14.188;2022-07-23T03:11:12;9.38;;;8.45;;
68475;SDS011;55464;48.266;14.188;2022-07-23T03:13:38;13.15;;;8.30;;
68475;SDS011;55464;48.266;14.188;2022-07-23T03:16:04;8.63;;;7.65;;
68475;SDS011;55464;48.266;14.188;2022-07-23T03:18:30;10.98;;;8.48;;
68475;SDS011;55464;48.266;14.188;2022-07-23T03:20:56;10.23;;;7.35;;
68475;SDS011;55464;48.266;14.188;2022-07-23T03:23:22;10.30;;;7.25;;
68475;SDS011;55464;48.266;14.188;2022-07-23T03:25:47;7.75;;;7.03;;
68475;SDS011;55464;48.266;14.188;2022-07-23T03:28:16;8.05;;;7.25;;
68475;SDS011;55464;48.266;14.188;2022-07-23T03:30:46;9.57;;;6.63;;
68475;SDS011;55464;48.266;14.188;2022-07-23T03:33:12;7.93;;;6.45;;
68475;SDS011;55464;48.266;14.188;2022-07-23T03:35:39;9.93;;;6.20;;
68475;SDS011;55464;48.266;14.188;2022-07-23T03:38:05;7.88;;;7.05;;
68475;SDS011;55464;48.266;14.188;2022-07-23T03:40:31;8.77;;;6.30;;
68475;SDS011;55464;48.266;14.188;2022-07-23T03:42:56;7.25;;;6.55;;
68475;SDS011;55464;48.266;14.188;2022-07-23T03:45:22;7.78;;;6.22;;
68475;SDS011;55464;48.266;14.188;2022-07-23T03:47:48;9.07;;;6.78;;
68475;SDS011;55464;48.266;14.188;2022-07-23T03:50:13;8.40;;;6.60;;
68475;SDS011;55464;48.266;14.188;2022-07-23T03:52:39;7.10;;;6.40;;
68475;SDS011;55464;48.266;14.188;2022-07-23T03:55:05;8.55;;;7.10;;
68475;SDS011;55464;48.266;14.188;2022-07-23T03:57:31;10.38;;;7.63;;
68475;SDS011;55464;48.266;14.188;2022-07-23T03:59:57;9.70;;;7.50;;
68475;SDS011;55464;48.266;14.188;2022-07-23T04:02:23;11.65;;;9.10;;
68475;SDS011;55464;48.266;14.188;2022-07-23T04:04:49;10.85;;;8.75;;
68475;SDS011;55464;48.266;14.188;2022-07-23T04:07:15;13.50;;;8.73;;
68475;SDS011;55464;48.266;14.188;2022-07-23T04:09:42;11.05;;;9.82;;
68475;SDS011;55464;48.266;14.188;2022-07-23T04:12:09;10.68;;;9.57;;
68475;SDS011;55464;48.266;14.188;2022-07-23T04:14:34;13.75;;;9.65;;
68475;SDS011;55464;48.266;14.188;2022-07-23T04:17:01;11.40;;;8.90;;
68475;SDS011;55464;48.266;14.188;2022-07-23T04:19:26;12.20;;;9.07;;
68475;SDS011;55464;48.266;14.188;2022-07-23T04:21:52;10.48;;;9.38;;
68475;SDS011;55464;48.266;14.188;2022-07-23T04:24:18;9.85;;;8.95;;
68475;SDS011;55464;48.266;14.188;2022-07-23T04:26:44;10.77;;;9.65;;
68475;SDS011;55464;48.266;14.188;2022-07-23T04:29:10;11.40;;;9.40;;
68475;SDS011;55464;48.266;14.188;2022-07-23T04:31:36;12.93;;;9.63;;
68475;SDS011;55464;48.266;14.188;2022-07-23T04:34:02;10.52;;;9.45;;
68475;SDS011;55464;48.266;14.188;2022-07-23T04:36:28;10.88;;;9.75;;
68475;SDS011;55464;48.266;14.188;2022-07-23T04:38:54;11.18;;;9.18;;
68475;SDS011;55464;48.266;14.188;2022-07-23T04:41:20;12.15;;;10.35;;
68475;SDS011;55464;48.266;14.188;2022-07-23T04:43:45;14.57;;;10.57;;
68475;SDS011;55464;48.266;14.188;2022-07-23T04:46:11;11.18;;;9.40;;
68475;SDS011;55464;48.266;14.188;2022-07-23T04:48:37;11.85;;;9.60;;
68475;SDS011;55464;48.266;14.188;2022-07-23T04:51:03;10.20;;;9.15;;
68475;SDS011;55464;48.266;14.188;2022-07-23T04:53:29;11.38;;;9.68;;
68475;SDS011;55464;48.266;14.188;2022-07-23T04:55:55;8.55;;;7.60;;
68475;SDS011;55464;48.266;14.188;2022-07-23T04:58:21;8.80;;;7.88;;
68475;SDS011;55464;48.266;14.188;2022-07-23T05:00:47;10.05;;;8.25;;
68475;SDS011;55464;48.266;14.188;2022-07-23T05:03:13;8.75;;;7.10;;
68475;SDS011;55464;48.266;14.188;2022-07-23T05:05:39;9.45;;;7.78;;
68475;SDS011;55464;48.266;14.188;2022-07-23T05:08:04;8.02;;;6.57;;
68475;SDS011;55464;48.266;14.188;2022-07-23T05:10:30;8.05;;;6.55;;
68475;SDS011;55464;48.266;14.188;2022-07-23T05:12:56;7.32;;;6.57;;
68475;SDS011;55464;48.266;14.188;2022-07-23T05:15:22;7.63;;;5.35;;
68475;SDS011;55464;48.266;14.188;2022-07-23T05:17:48;8.40;;;5.45;;
68475;SDS011;55464;48.266;14.188;2022-07-23T05:20:14;6.78;;;4.97;;
68475;SDS011;55464;48.266;14.188;2022-07-23T05:22:39;6.40;;;5.05;;
68475;SDS011;55464;48.266;14.188;2022-07-23T05:25:06;8.45;;;5.25;;
68475;SDS011;55464;48.266;14.188;2022-07-23T05:27:32;6.10;;;5.03;;
68475;SDS011;55464;48.266;14.188;2022-07-23T05:29:58;5.55;;;4.97;;
68475;SDS011;55464;48.266;14.188;2022-07-23T05:32:23;6.25;;;4.53;;
68475;SDS011;55464;48.266;14.188;2022-07-23T05:34:49;6.18;;;4.18;;
68475;SDS011;55464;48.266;14.188;2022-07-23T05:37:15;5.28;;;4.78;;
68475;SDS011;55464;48.266;14.188;2022-07-23T05:39:41;4.50;;;4.10;;
68475;SDS011;55464;48.266;14.188;2022-07-23T05:42:07;4.43;;;4.03;;
68475;SDS011;55464;48.266;14.188;2022-07-23T05:44:32;4.50;;;3.70;;
68475;SDS011;55464;48.266;14.188;2022-07-23T05:46:58;5.38;;;3.78;;
68475;SDS011;55464;48.266;14.188;2022-07-23T05:49:24;5.32;;;3.88;;
68475;SDS011;55464;48.266;14.188;2022-07-23T05:51:50;5.90;;;4.10;;
68475;SDS011;55464;48.266;14.188;2022-07-23T05:54:15;4.50;;;3.90;;
68475;SDS011;55464;48.266;14.188;2022-07-23T05:56:41;6.10;;;4.22;;
68475;SDS011;55464;48.266;14.188;2022-07-23T05:59:07;4.13;;;3.72;;
68475;SDS011;55464;48.266;14.188;2022-07-23T06:01:33;5.15;;;4.18;;
68475;SDS011;55464;48.266;14.188;2022-07-23T06:03:58;8.73;;;4.22;;
68475;SDS011;55464;48.266;14.188;2022-07-23T06:06:24;4.68;;;4.18;;
68475;SDS011;55464;48.266;14.188;2022-07-23T06:08:50;7.07;;;4.20;;
68475;SDS011;55464;48.266;14.188;2022-07-23T06:11:15;7.25;;;3.95;;
68475;SDS011;55464;48.266;14.188;2022-07-23T06:13:41;4.90;;;4.00;;
68475;SDS011;55464;48.266;14.188;2022-07-23T06:16:07;4.90;;;4.00;;
68475;SDS011;55464;48.266;14.188;2022-07-23T06:18:32;5.78;;;4.68;;
68475;SDS011;55464;48.266;14.188;2022-07-23T06:20:58;4.28;;;3.65;;
68475;SDS011;55464;48.266;14.188;2022-07-23T06:23:24;4.93;;;3.80;;
68475;SDS011;55464;48.266;14.188;2022-07-23T06:25:49;5.75;;;3.78;;
68475;SDS011;55464;48.266;14.188;2022-07-23T06:28:15;5.47;;;4.15;;
68475;SDS011;55464;48.266;14.188;2022-07-23T06:30:41;5.03;;;4.18;;
68475;SDS011;55464;48.266;14.188;2022-07-23T06:33:07;4.47;;;4.03;;
68475;SDS011;55464;48.266;14.188;2022-07-23T06:35:32;5.60;;;4.10;;
68475;SDS011;55464;48.266;14.188;2022-07-23T06:37:59;5.00;;;4.22;;
68475;SDS011;55464;48.266;14.188;2022-07-23T06:40:24;9.45;;;4.72;;
68475;SDS011;55464;48.266;14.188;2022-07-23T06:42:50;7.38;;;3.80;;
68475;SDS011;55464;48.266;14.188;2022-07-23T06:45:16;4.90;;;4.43;;
68475;SDS011;55464;48.266;14.188;2022-07-23T06:47:42;5.72;;;4.10;;
68475;SDS011;55464;48.266;14.188;2022-07-23T06:50:08;6.03;;;4.28;;
68475;SDS011;55464;48.266;14.188;2022-07-23T06:52:34;4.82;;;4.05;;
68475;SDS011;55464;48.266;14.188;2022-07-23T06:55:00;4.05;;;3.50;;
68475;SDS011;55464;48.266;14.188;2022-07-23T06:57:26;6.20;;;4.10;;
68475;SDS011;55464;48.266;14.188;2022-07-23T06:59:52;7.65;;;4.07;;
68475;SDS011;55464;48.266;14.188;2022-07-23T07:02:18;5.53;;;3.70;;
68475;SDS011;55464;48.266;14.188;2022-07-23T07:04:43;4.88;;;3.80;;
68475;SDS011;55464;48.266;14.188;2022-07-23T07:07:10;3.70;;;3.22;;
68475;SDS011;55464;48.266;14.188;2022-07-23T07:09:37;7.63;;;3.83;;
68475;SDS011;55464;48.266;14.188;2022-07-23T07:12:03;4.38;;;4.03;;
68475;SDS011;55464;48.266;14.188;2022-07-23T07:14:29;10.20;;;3.80;;
68475;SDS011;55464;48.266;14.188;2022-07-23T07:16:54;4.03;;;3.63;;
68475;SDS011;55464;48.266;14.188;2022-07-23T07:19:20;4.75;;;3.50;;
68475;SDS011;55464;48.266;14.188;2022-07-23T07:21:46;4.28;;;3.40;;
68475;SDS011;55464;48.266;14.188;2022-07-23T07:24:11;5.65;;;3.60;;
68475;SDS011;55464;48.266;14.188;2022-07-23T07:26:37;4.85;;;3.55;;
68475;SDS011;55464;48.266;14.188;2022-07-23T07:29:04;4.40;;;3.70;;
68475;SDS011;55464;48.266;14.188;2022-07-23T07:31:30;4.85;;;3.95;;
68475;SDS011;55464;48.266;14.188;2022-07-23T07:33:55;5.57;;;4.03;;
68475;SDS011;55464;48.266;14.188;2022-07-23T07:36:22;5.38;;;3.92;;
68475;SDS011;55464;48.266;14.188;2022-07-23T07:38:48;5.72;;;3.55;;
68475;SDS011;55464;48.266;14.188;2022-07-23T07:41:13;3.65;;;3.35;;
68475;SDS011;55464;48.266;14.188;2022-07-23T07:43:39;4.57;;;3.22;;
68475;SDS011;55464;48.266;14.188;2022-07-23T07:46:05;3.58;;;3.20;;
68475;SDS011;55464;48.266;14.188;2022-07-23T07:48:35;5.60;;;3.53;;
68475;SDS011;55464;48.266;14.188;2022-07-23T07:51:04;5.53;;;4.05;;
68475;SDS011;55464;48.266;14.188;2022-07-23T07:53:30;4.18;;;3.78;;
68475;SDS011;55464;48.266;14.188;2022-07-23T07:55:55;5.35;;;4.10;;
68475;SDS011;55464;48.266;14.188;2022-07-23T07:58:21;5.47;;;3.60;;
68475;SDS011;55464;48.266;14.188;2022-07-23T08:00:47;4.60;;;3.90;;
68475;SDS011;55464;48.266;14.188;2022-07-23T08:03:13;4.10;;;3.70;;
68475;SDS011;55464;48.266;14.188;2022-07-23T08:05:39;4.32;;;3.72;;
68475;SDS011;55464;48.266;14.188;2022-07-23T08:08:05;4.47;;;4.07;;
68475;SDS011;55464;48.266;14.188;2022-07-23T08:10:31;5.18;;;3.47;;
68475;SDS011;55464;48.266;14.188;2022-07-23T08:12:57;5.05;;;4.35;;
68475;SDS011;55464;48.266;14.188;2022-07-23T08:15:24;5.10;;;4.28;;
68475;SDS011;55464;48.266;14.188;2022-07-23T08:17:52;5.40;;;4.32;;
68475;SDS011;55464;48.266;14.188;2022-07-23T08:20:18;5.97;;;4.20;;
68475;SDS011;55464;48.266;14.188;2022-07-23T08:22:56;5.65;;;4.47;;
68475;SDS011;55464;48.266;14.188;2022-07-23T08:25:29;6.50;;;4.10;;
68475;SDS011;55464;48.266;14.188;2022-07-23T08:27:55;5.50;;;4.10;;
68475;SDS011;55464;48.266;14.188;2022-07-23T08:30:22;4.70;;;3.97;;
68475;SDS011;55464;48.266;14.188;2022-07-23T08:32:55;4.03;;;3.67;;
68475;SDS011;55464;48.266;14.188;2022-07-23T08:35:38;4.53;;;4.13;;
68475;SDS011;55464;48.266;14.188;2022-07-23T08:38:09;4.85;;;4.15;;
68475;SDS011;55464;48.266;14.188;2022-07-23T08:40:37;5.93;;;4.13;;
68475;SDS011;55464;48.266;14.188;2022-07-23T08:43:06;5.75;;;4.22;;
68475;SDS011;55464;48.266;14.188;2022-07-23T08:45:40;4.57;;;4.18;;
68475;SDS011;55464;48.266;14.188;2022-07-23T08:48:14;4.95;;;4.30;;
68475;SDS011;55464;48.266;14.188;2022-07-23T08:50:42;4.03;;;3.65;;
68475;SDS011;55464;48.266;14.188;2022-07-23T08:53:09;8.07;;;4.45;;
68475;SDS011;55464;48.266;14.188;2022-07-23T08:55:35;4.13;;;3.72;;
68475;SDS011;55464;48.266;14.188;2022-07-23T08:58:02;4.47;;;3.65;;
68475;SDS011;55464;48.266;14.188;2022-07-23T09:00:28;3.88;;;3.58;;
68475;SDS011;55464;48.266;14.188;2022-07-23T09:02:54;4.60;;;4.20;;
68475;SDS011;55464;48.266;14.188;2022-07-23T09:05:20;4.32;;;3.92;;
68475;SDS011;55464;48.266;14.188;2022-07-23T09:08:05;5.78;;;4.38;;
68475;SDS011;55464;48.266;14.188;2022-07-23T09:10:51;4.63;;;3.40;;
68475;SDS011;55464;48.266;14.188;2022-07-23T09:19:01;4.20;;;3.80;;
68475;SDS011;55464;48.266;14.188;2022-07-23T09:21:29;8.13;;;4.25;;
68475;SDS011;55464;48.266;14.188;2022-07-23T09:24:06;4.25;;;3.85;;
68475;SDS011;55464;48.266;14.188;2022-07-23T09:36:50;4.80;;;4.30;;
68475;SDS011;55464;48.266;14.188;2022-07-23T09:39:30;4.93;;;3.80;;
68475;SDS011;55464;48.266;14.188;2022-07-23T09:41:57;4.22;;;3.80;;
68475;SDS011;55464;48.266;14.188;2022-07-23T09:44:41;4.00;;;3.42;;
68475;SDS011;55464;48.266;14.188;2022-07-23T09:47:12;3.75;;;3.45;;
68475;SDS011;55464;48.266;14.188;2022-07-23T09:49:38;5.28;;;3.17;;
68475;SDS011;55464;48.266;14.188;2022-07-23T09:52:04;5.13;;;3.42;;
68475;SDS011;55464;48.266;14.188;2022-07-23T09:54:37;3.75;;;3.45;;
68475;SDS011;55464;48.266;14.188;2022-07-23T09:57:11;3.53;;;3.03;;
68475;SDS011;55464;48.266;14.188;2022-07-23T09:59:41;3.35;;;3.00;;
68475;SDS011;55464;48.266;14.188;2022-07-23T10:02:08;6.93;;;3.90;;
68475;SDS011;55464;48.266;14.188;2022-07-23T10:04:35;4.80;;;3.72;;
68475;SDS011;55464;48.266;14.188;2022-07-23T10:07:02;3.35;;;3.05;;
68475;SDS011;55464;48.266;14.188;2022-07-23T10:09:34;3.13;;;2.70;;
68475;SDS011;55464;48.266;14.188;2022-07-23T10:12:05;2.97;;;2.70;;
68475;SDS011;55464;48.266;14.188;2022-07-23T10:14:40;3.95;;;2.97;;
68475;SDS011;55464;48.266;14.188;2022-07-23T10:17:06;4.10;;;2.95;;
68475;SDS011;55464;48.266;14.188;2022-07-23T10:19:32;3.10;;;2.58;;
68475;SDS011;55464;48.266;14.188;2022-07-23T10:22:00;4.10;;;3.67;;
68475;SDS011;55464;48.266;14.188;2022-07-23T10:37:44;2.47;;;2.28;;
68475;SDS011;55464;48.266;14.188;2022-07-23T10:40:14;4.10;;;2.88;;
68475;SDS011;55464;48.266;14.188;2022-07-23T10:42:42;3.22;;;2.92;;
68475;SDS011;55464;48.266;14.188;2022-07-23T10:45:28;3.00;;;2.70;;
68475;SDS011;55464;48.266;14.188;2022-07-23T10:51:07;3.33;;;3.03;;
68475;SDS011;55464;48.266;14.188;2022-07-23T10:56:14;3.45;;;3.03;;
68475;SDS011;55464;48.266;14.188;2022-07-23T10:58:45;3.28;;;2.97;;
68475;SDS011;55464;48.266;14.188;2022-07-23T11:04:00;4.88;;;3.13;;
68475;SDS011;55464;48.266;14.188;2022-07-23T11:17:32;4.18;;;3.20;;
68475;SDS011;55464;48.266;14.188;2022-07-23T11:20:20;6.32;;;3.00;;
68475;SDS011;55464;48.266;14.188;2022-07-23T11:22:49;3.60;;;3.30;;
68475;SDS011;55464;48.266;14.188;2022-07-23T11:27:49;6.22;;;4.10;;
68475;SDS011;55464;48.266;14.188;2022-07-23T11:32:51;4.65;;;4.03;;
68475;SDS011;55464;48.266;14.188;2022-07-23T11:35:22;5.63;;;3.70;;
68475;SDS011;55464;48.266;14.188;2022-07-23T11:37:50;5.05;;;4.20;;
68475;SDS011;55464;48.266;14.188;2022-07-23T11:40:19;5.90;;;4.28;;
68475;SDS011;55464;48.266;14.188;2022-07-23T11:43:04;3.97;;;3.45;;
68475;SDS011;55464;48.266;14.188;2022-07-23T11:45:38;5.07;;;3.80;;
68475;SDS011;55464;48.266;14.188;2022-07-23T11:48:07;4.53;;;4.13;;
68475;SDS011;55464;48.266;14.188;2022-07-23T11:50:34;4.40;;;4.00;;
68475;SDS011;55464;48.266;14.188;2022-07-23T11:53:01;4.40;;;4.00;;
68475;SDS011;55464;48.266;14.188;2022-07-23T11:55:27;4.18;;;3.78;;
68475;SDS011;55464;48.266;14.188;2022-07-23T11:57:55;3.65;;;3.35;;
68475;SDS011;55464;48.266;14.188;2022-07-23T12:00:24;4.22;;;3.83;;
68475;SDS011;55464;48.266;14.188;2022-07-23T12:02:54;4.57;;;3.88;;
68475;SDS011;55464;48.266;14.188;2022-07-23T12:05:28;5.25;;;3.90;;
68475;SDS011;55464;48.266;14.188;2022-07-23T12:07:58;4.80;;;3.83;;
68475;SDS011;55464;48.266;14.188;2022-07-23T12:10:26;4.38;;;3.63;;
68475;SDS011;55464;48.266;14.188;2022-07-23T12:13:00;4.28;;;3.80;;
68475;SDS011;55464;48.266;14.188;2022-07-23T12:15:29;4.10;;;3.78;;
68475;SDS011;55464;48.266;14.188;2022-07-23T12:18:02;4.78;;;4.28;;
68475;SDS011;55464;48.266;14.188;2022-07-23T12:20:33;4.25;;;3.85;;
68475;SDS011;55464;48.266;14.188;2022-07-23T12:23:02;5.53;;;4.10;;
68475;SDS011;55464;48.266;14.188;2022-07-23T12:25:30;4.50;;;4.10;;
68475;SDS011;55464;48.266;14.188;2022-07-23T12:27:59;5.38;;;4.00;;
68475;SDS011;55464;48.266;14.188;2022-07-23T12:30:28;4.00;;;3.70;;
68475;SDS011;55464;48.266;14.188;2022-07-23T12:32:56;4.60;;;3.92;;
68475;SDS011;55464;48.266;14.188;2022-07-23T12:35:23;3.92;;;3.63;;
68475;SDS011;55464;48.266;14.188;2022-07-23T12:38:00;3.65;;;3.35;;
68475;SDS011;55464;48.266;14.188;2022-07-23T12:43:00;4.28;;;3.85;;
68475;SDS011;55464;48.266;14.188;2022-07-23T12:45:28;5.78;;;3.60;;
68475;SDS011;55464;48.266;14.188;2022-07-23T12:48:21;4.45;;;3.72;;
68475;SDS011;55464;48.266;14.188;2022-07-23T12:50:56;3.70;;;3.40;;
68475;SDS011;55464;48.266;14.188;2022-07-23T12:53:24;4.20;;;3.88;;
68475;SDS011;55464;48.266;14.188;2022-07-23T12:56:18;4.97;;;4.18;;
68475;SDS011;55464;48.266;14.188;2022-07-23T12:58:47;4.57;;;4.18;;
68475;SDS011;55464;48.266;14.188;2022-07-23T13:01:53;4.10;;;3.72;;
68475;SDS011;55464;48.266;14.188;2022-07-23T13:04:20;4.32;;;3.92;;
68475;SDS011;55464;48.266;14.188;2022-07-23T13:06:48;4.60;;;4.20;;
68475;SDS011;55464;48.266;14.188;2022-07-23T13:09:19;4.00;;;3.63;;
68475;SDS011;55464;48.266;14.188;2022-07-23T13:11:46;6.10;;;4.60;;
68475;SDS011;55464;48.266;14.188;2022-07-23T13:14:14;4.97;;;4.00;;
68475;SDS011;55464;48.266;14.188;2022-07-23T13:16:40;5.00;;;3.75;;
68475;SDS011;55464;48.266;14.188;2022-07-23T13:19:06;4.78;;;4.35;;
68475;SDS011;55464;48.266;14.188;2022-07-23T13:21:32;4.80;;;4.28;;
68475;SDS011;55464;48.266;14.188;2022-07-23T13:23:58;4.55;;;4.10;;
68475;SDS011;55464;48.266;14.188;2022-07-23T13:26:24;4.20;;;3.90;;
68475;SDS011;55464;48.266;14.188;2022-07-23T13:28:50;5.22;;;3.90;;
68475;SDS011;55464;48.266;14.188;2022-07-23T13:31:16;4.45;;;3.88;;
68475;SDS011;55464;48.266;14.188;2022-07-23T13:33:42;5.35;;;3.95;;
68475;SDS011;55464;48.266;14.188;2022-07-23T13:36:08;4.78;;;4.25;;
68475;SDS011;55464;48.266;14.188;2022-07-23T13:38:34;4.88;;;4.47;;
68475;SDS011;55464;48.266;14.188;2022-07-23T13:40:59;6.00;;;4.30;;
68475;SDS011;55464;48.266;14.188;2022-07-23T13:43:26;6.40;;;4.18;;
68475;SDS011;55464;48.266;14.188;2022-07-23T13:45:52;4.43;;;4.03;;
68475;SDS011;55464;48.266;14.188;2022-07-23T13:48:18;4.90;;;4.50;;
68475;SDS011;55464;48.266;14.188;2022-07-23T13:50:46;4.72;;;4.32;;
68475;SDS011;55464;48.266;14.188;2022-07-23T13:53:13;4.95;;;4.45;;
68475;SDS011;55464;48.266;14.188;2022-07-23T13:55:44;6.07;;;4.57;;
68475;SDS011;55464;48.266;14.188;2022-07-23T13:58:11;5.82;;;4.25;;
68475;SDS011;55464;48.266;14.188;2022-07-23T14:00:39;5.30;;;4.80;;
68475;SDS011;55464;48.266;14.188;2022-07-23T14:03:07;5.25;;;4.75;;
68475;SDS011;55464;48.266;14.188;2022-07-23T14:05:33;5.90;;;4.45;;
68475;SDS011;55464;48.266;14.188;2022-07-23T14:07:59;4.85;;;4.35;;
68475;SDS011;55464;48.266;14.188;2022-07-23T14:10:25;4.85;;;4.28;;
68475;SDS011;55464;48.266;14.188;2022-07-23T14:12:51;6.45;;;4.60;;
68475;SDS011;55464;48.266;14.188;2022-07-23T14:15:24;5.03;;;4.50;;
68475;SDS011;55464;48.266;14.188;2022-07-23T14:17:52;5.07;;;4.55;;
68475;SDS011;55464;48.266;14.188;2022-07-23T14:20:18;5.88;;;4.40;;
68475;SDS011;55464;48.266;14.188;2022-07-23T14:22:44;4.88;;;3.95;;
68475;SDS011;55464;48.266;14.188;2022-07-23T14:25:10;4.65;;;4.25;;
68475;SDS011;55464;48.266;14.188;2022-07-23T14:27:36;4.95;;;4.45;;
68475;SDS011;55464;48.266;14.188;2022-07-23T14:30:03;5.03;;;4.45;;
68475;SDS011;55464;48.266;14.188;2022-07-23T14:32:30;6.15;;;4.68;;
68475;SDS011;55464;48.266;14.188;2022-07-23T14:34:56;6.07;;;4.32;;
68475;SDS011;55464;48.266;14.188;2022-07-23T14:37:21;5.85;;;4.65;;
68475;SDS011;55464;48.266;14.188;2022-07-23T14:39:47;4.88;;;4.40;;
68475;SDS011;55464;48.266;14.188;2022-07-23T14:42:13;6.30;;;4.75;;
68475;SDS011;55464;48.266;14.188;2022-07-23T14:44:39;6.50;;;4.70;;
68475;SDS011;55464;48.266;14.188;2022-07-23T14:47:05;4.53;;;4.13;;
68475;SDS011;55464;48.266;14.188;2022-07-23T14:49:31;4.68;;;3.72;;
68475;SDS011;55464;48.266;14.188;2022-07-23T14:51:57;5.25;;;3.90;;
68475;SDS011;55464;48.266;14.188;2022-07-23T14:54:24;6.97;;;4.00;;
68475;SDS011;55464;48.266;14.188;2022-07-23T14:56:51;4.55;;;4.07;;
68475;SDS011;55464;48.266;14.188;2022-07-23T14:59:18;4.97;;;4.18;;
68475;SDS011;55464;48.266;14.188;2022-07-23T15:01:44;5.80;;;4.13;;
68475;SDS011;55464;48.266;14.188;2022-07-23T15:04:10;7.55;;;3.97;;
68475;SDS011;55464;48.266;14.188;2022-07-23T15:06:35;4.75;;;4.10;;
68475;SDS011;55464;48.266;14.188;2022-07-23T15:09:02;6.13;;;4.25;;
68475;SDS011;55464;48.266;14.188;2022-07-23T15:11:27;4.45;;;4.00;;
68475;SDS011;55464;48.266;14.188;2022-07-23T15:13:57;3.70;;;3.40;;
68475;SDS011;55464;48.266;14.188;2022-07-23T15:16:23;5.68;;;4.07;;
68475;SDS011;55464;48.266;14.188;2022-07-23T15:18:48;4.38;;;3.97;;
68475;SDS011;55464;48.266;14.188;2022-07-23T15:21:14;6.15;;;4.60;;
68475;SDS011;55464;48.266;14.188;2022-07-23T15:23:40;4.85;;;4.40;;
68475;SDS011;55464;48.266;14.188;2022-07-23T15:26:06;5.22;;;4.10;;
68475;SDS011;55464;48.266;14.188;2022-07-23T15:28:33;5.30;;;4.53;;
68475;SDS011;55464;48.266;14.188;2022-07-23T15:31:00;4.78;;;3.95;;